createdAt,value
2019-04-06T00:01:50.978Z,95068.94
2019-04-06T00:04:19.888Z,95070.65
2019-04-06T00:06:48.367Z,95070.37
2019-04-06T00:09:16.939Z,95061.64
2019-04-06T00:11:45.507Z,95063.50
2019-04-06T00:14:14.003Z,95063.20
2019-04-06T00:16:42.489Z,95061.56
2019-04-06T00:19:11.027Z,95061.69
2019-04-06T00:21:39.547Z,95059.33
2019-04-06T00:24:08.169Z,95057.48
2019-04-06T00:26:36.671Z,95054.02
2019-04-06T00:29:05.267Z,95056.67
2019-04-06T00:31:51.477Z,95057.28
2019-04-06T00:34:20.174Z,95056.19
2019-04-06T00:36:48.661Z,95049.53
2019-04-06T00:39:17.228Z,95054.74
2019-04-06T00:41:45.705Z,95055.88
2019-04-06T00:44:16.712Z,95054.92
2019-04-06T00:46:44.441Z,95060.17
2019-04-06T00:49:13.831Z,95059.12
2019-04-06T00:51:42.278Z,95059.86
2019-04-06T00:54:10.805Z,95063.34
2019-04-06T00:56:39.284Z,95059.05
2019-04-06T00:59:07.764Z,95056.68
2019-04-06T01:01:36.342Z,95064.97
2019-04-06T01:04:04.914Z,95068.88
2019-04-06T01:06:33.421Z,95065.62
2019-04-06T01:09:01.919Z,95061.40
2019-04-06T01:11:30.383Z,95053.66
2019-04-06T01:13:58.888Z,95055.39
2019-04-06T01:16:27.381Z,95058.86
2019-04-06T01:18:55.923Z,95053.11
2019-04-06T01:21:24.395Z,95058.36
2019-04-06T01:23:52.901Z,95059.38
2019-04-06T01:26:21.420Z,95059.38
2019-04-06T01:28:50.055Z,95057.53
2019-04-06T01:31:18.799Z,95058.25
2019-04-06T01:33:47.311Z,95061.73
2019-04-06T01:36:15.886Z,95053.03
2019-04-06T01:38:44.361Z,95052.02
2019-04-06T01:41:12.893Z,95056.00
2019-04-06T01:43:41.950Z,95054.67
2019-04-06T01:46:10.469Z,95055.29
2019-04-06T01:48:38.919Z,95055.09
2019-04-06T01:51:07.402Z,95052.02
2019-04-06T01:53:38.773Z,95053.55
2019-04-06T01:56:17.904Z,95048.66
2019-04-06T01:58:37.502Z,95056.33
2019-04-06T02:01:07.633Z,95045.91
2019-04-06T02:03:37.524Z,95043.64
2019-04-06T02:06:06.019Z,95041.90
2019-04-06T02:08:34.528Z,95043.12
2019-04-06T02:11:03.035Z,95035.68
2019-04-06T02:13:31.536Z,95035.14
2019-04-06T02:16:00.032Z,95026.27
2019-04-06T02:18:28.522Z,95028.22
2019-04-06T02:20:57.125Z,95027.08
2019-04-06T02:23:25.765Z,95024.31
2019-04-06T02:25:54.185Z,95024.20
2019-04-06T02:28:22.685Z,95022.79
2019-04-06T02:30:55.581Z,95018.80
2019-04-06T02:33:28.373Z,95017.48
2019-04-06T02:36:01.151Z,95018.57
2019-04-06T02:38:38.235Z,95023.30
2019-04-06T02:41:14.346Z,95013.26
2019-04-06T02:43:42.843Z,95012.55
2019-04-06T02:46:11.538Z,95017.07
2019-04-06T02:48:39.972Z,95016.33
2019-04-06T02:51:08.460Z,95026.26
2019-04-06T02:53:36.962Z,95022.38
2019-04-06T02:56:05.461Z,95027.06
2019-04-06T02:58:34.118Z,95018.70
2019-04-06T03:01:02.635Z,95027.47
2019-04-06T03:04:01.423Z,95033.11
2019-04-06T03:06:30.124Z,95023.09
2019-04-06T03:08:58.588Z,95030.95
2019-04-06T03:11:27.219Z,95018.80
2019-04-06T03:13:55.792Z,95025.73
2019-04-06T03:16:24.277Z,95028.79
2019-04-06T03:18:52.763Z,95033.28
2019-04-06T03:21:22.050Z,95038.71
2019-04-06T03:23:52.194Z,95033.91
2019-04-06T03:26:20.725Z,95040.35
2019-04-06T03:28:49.314Z,95046.88
2019-04-06T03:31:22.789Z,95040.86
2019-04-06T03:33:48.060Z,95039.22
2019-04-06T03:36:16.545Z,95046.80
2019-04-06T03:38:45.007Z,95053.33
2019-04-06T03:41:13.521Z,95053.64
2019-04-06T03:43:42.156Z,95059.07
2019-04-06T03:46:10.610Z,95057.00
2019-04-06T03:48:39.177Z,95064.78
2019-04-06T03:51:07.723Z,95063.77
2019-04-06T03:53:36.217Z,95063.96
2019-04-06T03:56:04.976Z,95060.91
2019-04-06T03:58:33.879Z,95061.22
2019-04-06T04:01:02.712Z,95063.69
2019-04-06T04:03:31.208Z,95057.34
2019-04-06T04:05:59.667Z,95056.92
2019-04-06T04:08:28.174Z,95062.44
2019-04-06T04:10:56.649Z,95067.98
2019-04-06T04:13:25.397Z,95066.84
2019-04-06T04:15:56.748Z,95064.30
2019-04-06T04:18:24.107Z,95067.89
2019-04-06T04:20:52.566Z,95067.07
2019-04-06T04:23:21.061Z,95060.62
2019-04-06T04:25:49.536Z,95068.28
2019-04-06T04:28:18.009Z,95063.39
2019-04-06T04:30:46.522Z,95052.22
2019-04-06T04:33:15.116Z,95050.08
2019-04-06T04:35:43.550Z,95055.08
2019-04-06T04:38:12.039Z,95043.12
2019-04-06T04:40:40.503Z,95055.00
2019-04-06T04:43:08.995Z,95060.00
2019-04-06T04:45:37.538Z,95055.50
2019-04-06T04:48:06.057Z,95061.02
2019-04-06T04:50:34.645Z,95055.00
2019-04-06T04:53:03.132Z,95050.70
2019-04-06T04:55:31.694Z,95049.99
2019-04-06T04:58:00.241Z,95050.50
2019-04-06T05:00:28.899Z,95055.91
2019-04-06T05:02:57.860Z,95049.77
2019-04-06T05:05:26.314Z,95046.20
2019-04-06T05:07:54.923Z,95049.77
2019-04-06T05:10:23.593Z,95046.00
2019-04-06T05:12:52.204Z,95029.52
2019-04-06T05:15:32.504Z,95040.98
2019-04-06T05:18:01.349Z,95040.86
2019-04-06T05:20:30.152Z,95041.09
2019-04-06T05:22:58.641Z,95034.73
2019-04-06T05:25:27.139Z,95031.25
2019-04-06T05:27:55.619Z,95032.89
2019-04-06T05:30:24.090Z,95023.77
2019-04-06T05:32:52.633Z,95030.22
2019-04-06T05:35:21.122Z,95022.66
2019-04-06T05:37:49.635Z,95022.14
2019-04-06T05:40:18.157Z,95026.83
2019-04-06T05:42:46.772Z,95023.33
2019-04-06T05:45:15.343Z,95023.55
2019-04-06T05:47:44.084Z,95020.45
2019-04-06T05:50:12.651Z,95022.19
2019-04-06T05:52:41.269Z,95017.07
2019-04-06T05:55:10.333Z,95023.94
2019-04-06T05:57:38.822Z,95012.47
2019-04-06T06:00:10.491Z,95016.84
2019-04-06T06:02:41.339Z,95026.44
2019-04-06T06:05:10.527Z,95016.61
2019-04-06T06:07:39.667Z,95016.30
2019-04-06T06:10:08.390Z,95016.41
2019-04-06T06:12:36.837Z,95015.87
2019-04-06T06:15:07.244Z,95018.53
2019-04-06T06:17:35.706Z,95012.28
2019-04-06T06:20:06.641Z,95015.87
2019-04-06T06:22:35.160Z,95010.45
2019-04-06T06:25:04.975Z,95012.62
2019-04-06T06:27:33.777Z,95012.39
2019-04-06T06:30:02.517Z,95018.02
2019-04-06T06:32:31.450Z,95013.21
2019-04-06T06:35:00.533Z,95015.94
2019-04-06T06:37:29.225Z,95013.08
2019-04-06T06:39:57.795Z,95019.22
2019-04-06T06:42:26.264Z,95019.77
2019-04-06T06:44:54.895Z,95020.00
2019-04-06T06:47:23.394Z,95026.45
2019-04-06T06:49:51.913Z,95014.54
2019-04-06T06:52:20.376Z,95014.98
2019-04-06T06:54:48.861Z,95012.08
2019-04-06T06:57:17.523Z,95011.02
2019-04-06T06:59:46.013Z,95007.94
2019-04-06T07:02:14.719Z,95008.11
2019-04-06T07:04:43.208Z,95019.27
2019-04-06T07:07:11.911Z,95003.86
2019-04-06T07:09:40.366Z,95002.53
2019-04-06T07:12:08.860Z,94997.20
2019-04-06T07:14:37.562Z,94989.46
2019-04-06T07:17:06.178Z,94998.38
2019-04-06T07:19:34.704Z,94989.09
2019-04-06T07:22:03.360Z,94995.45
2019-04-06T07:24:31.856Z,94998.92
2019-04-06T07:27:00.387Z,94992.68
2019-04-06T07:29:28.944Z,94984.43
2019-04-06T07:31:57.732Z,94986.33
2019-04-06T07:34:26.269Z,94980.20
2019-04-06T07:36:54.740Z,94977.57
2019-04-06T07:39:23.337Z,94982.85
2019-04-06T07:41:51.899Z,94974.47
2019-04-06T07:44:20.375Z,94967.20
2019-04-06T07:46:48.876Z,94969.66
2019-04-06T07:49:17.391Z,94957.77
2019-04-06T07:51:45.874Z,94965.56
2019-04-06T07:54:14.362Z,94963.19
2019-04-06T07:56:43.289Z,94956.80
2019-04-06T07:59:11.770Z,94946.38
2019-04-06T08:01:40.375Z,94952.19
2019-04-06T08:04:08.826Z,94948.19
2019-04-06T08:06:37.299Z,94935.07
2019-04-06T08:09:07.685Z,94929.45
2019-04-06T08:11:36.117Z,94928.27
2019-04-06T08:14:04.838Z,94926.81
2019-04-06T08:16:33.260Z,94917.84
2019-04-06T08:19:01.934Z,94913.43
2019-04-06T08:21:30.487Z,94918.08
2019-04-06T08:23:58.981Z,94919.60
2019-04-06T08:26:27.486Z,94919.30
2019-04-06T08:29:01.880Z,94912.72
2019-04-06T08:31:26.356Z,94918.19
2019-04-06T08:33:54.837Z,94918.98
2019-04-06T08:36:23.396Z,94915.59
2019-04-06T08:38:51.896Z,94915.48
2019-04-06T08:41:20.379Z,94914.09
2019-04-06T08:43:48.870Z,94910.23
2019-04-06T08:46:17.385Z,94900.26
2019-04-06T08:48:45.853Z,94903.56
2019-04-06T08:51:14.661Z,94902.24
2019-04-06T08:53:43.545Z,94888.58
2019-04-06T08:56:12.037Z,94891.81
2019-04-06T08:58:40.514Z,94892.59
2019-04-06T09:01:09.007Z,94882.09
2019-04-06T09:03:37.517Z,94892.38
2019-04-06T09:06:06.142Z,94892.56
2019-04-06T09:08:34.652Z,94888.08
2019-04-06T09:11:03.164Z,94899.23
2019-04-06T09:13:31.670Z,94895.04
2019-04-06T09:16:00.150Z,94888.13
2019-04-06T09:18:29.165Z,94899.08
2019-04-06T09:20:57.985Z,94908.53
2019-04-06T09:23:26.720Z,94905.64
2019-04-06T09:25:55.363Z,94897.48
2019-04-06T09:28:23.871Z,94888.65
2019-04-06T09:30:52.370Z,94898.14
2019-04-06T09:33:20.855Z,94899.00
2019-04-06T09:35:49.351Z,94893.77
2019-04-06T09:38:20.557Z,94897.94
2019-04-06T09:40:50.942Z,94895.36
2019-04-06T09:43:20.075Z,94896.05
2019-04-06T09:45:50.491Z,94893.42
2019-04-06T09:48:29.501Z,94891.67
2019-04-06T09:51:08.694Z,94893.87
2019-04-06T09:53:41.587Z,94887.69
2019-04-06T09:56:14.491Z,94882.94
2019-04-06T09:58:47.023Z,94875.33
2019-04-06T10:01:37.970Z,94887.05
2019-04-06T10:04:07.017Z,94887.33
2019-04-06T10:06:53.081Z,94878.20
2019-04-06T10:09:23.191Z,94886.84
2019-04-06T10:11:59.348Z,94879.08
2019-04-06T10:14:41.709Z,94882.47
2019-04-06T10:17:17.855Z,94877.72
2019-04-06T10:19:56.884Z,94878.13
2019-04-06T10:22:42.209Z,94867.69
2019-04-06T10:25:28.755Z,94870.67
2019-04-06T10:28:07.627Z,94866.58
2019-04-06T10:30:37.741Z,94870.89
2019-04-06T10:33:10.718Z,94865.71
2019-04-06T10:35:56.720Z,94858.27
2019-04-06T10:38:26.869Z,94850.35
2019-04-06T10:41:05.995Z,94849.02
2019-04-06T10:43:42.070Z,94850.42
2019-04-06T10:46:18.116Z,94838.21
2019-04-06T10:48:51.084Z,94833.76
2019-04-06T10:51:23.975Z,94840.08
2019-04-06T10:53:59.878Z,94843.84
2019-04-06T10:56:35.768Z,94848.08
2019-04-06T10:59:14.948Z,94847.48
2019-04-06T11:02:01.429Z,94845.08
2019-04-06T11:04:40.083Z,94823.48
2019-04-06T11:07:26.102Z,94829.86
2019-04-06T11:10:08.182Z,94831.19
2019-04-06T11:12:43.781Z,94835.77
2019-04-06T11:15:32.594Z,94835.20
2019-04-06T11:18:11.943Z,94843.36
2019-04-06T11:20:48.383Z,94837.20
2019-04-06T11:23:24.481Z,94844.03
2019-04-06T11:25:54.707Z,94846.94
2019-04-06T11:28:30.735Z,94840.58
2019-04-06T11:31:06.800Z,94836.28
2019-04-06T11:33:36.935Z,94832.25
2019-04-06T11:36:19.442Z,94853.86
2019-04-06T11:38:49.579Z,94860.09
2019-04-06T11:41:36.019Z,94867.65
2019-04-06T11:44:15.356Z,94853.83
2019-04-06T11:46:51.214Z,94854.10
2019-04-06T11:49:29.895Z,94851.94
2019-04-06T11:52:05.798Z,94855.41
2019-04-06T11:54:41.906Z,94857.88
2019-04-06T11:57:17.719Z,94850.31
2019-04-06T11:59:50.921Z,94863.86
2019-04-06T12:02:24.069Z,94854.19
2019-04-06T12:05:09.824Z,94845.91
2019-04-06T12:07:55.379Z,94852.39
2019-04-06T12:10:25.581Z,94855.34
2019-04-06T12:13:01.675Z,94844.88
2019-04-06T12:15:34.995Z,94849.30
2019-04-06T12:18:05.227Z,94856.49
2019-04-06T12:20:37.779Z,94845.70
2019-04-06T12:23:07.899Z,94845.95
2019-04-06T12:25:38.080Z,94852.16
2019-04-06T12:28:11.206Z,94856.80
2019-04-06T12:30:41.375Z,94854.38
2019-04-06T12:33:20.711Z,94857.09
2019-04-06T12:36:07.213Z,94846.03
2019-04-06T12:38:39.793Z,94852.52
2019-04-06T12:41:18.631Z,94844.93
2019-04-06T12:43:48.778Z,94847.89
2019-04-06T12:46:24.931Z,94847.22
2019-04-06T12:48:55.071Z,94842.35
2019-04-06T12:51:37.451Z,94835.55
2019-04-06T12:54:10.555Z,94844.17
2019-04-06T12:56:46.603Z,94844.36
2019-04-06T12:59:16.775Z,94839.94
2019-04-06T13:02:05.119Z,94845.12
2019-04-06T13:04:40.769Z,94840.73
2019-04-06T13:07:27.285Z,94835.44
2019-04-06T13:10:14.075Z,94829.65
2019-04-06T13:13:00.022Z,94842.78
2019-04-06T13:15:46.487Z,94835.05
2019-04-06T13:18:35.105Z,94836.49
2019-04-06T13:21:22.910Z,94830.05
2019-04-06T13:24:05.372Z,94818.16
2019-04-06T13:26:44.460Z,94823.01
2019-04-06T13:29:29.946Z,94818.16
2019-04-06T13:32:17.949Z,94812.77
2019-04-06T13:35:05.498Z,94817.31
2019-04-06T13:37:38.918Z,94806.80
2019-04-06T13:40:12.758Z,94820.60
2019-04-06T13:42:42.882Z,94811.13
2019-04-06T13:45:16.157Z,94811.91
2019-04-06T13:48:01.419Z,94820.58
2019-04-06T13:50:34.064Z,94821.94
2019-04-06T13:53:12.834Z,94834.13
2019-04-06T13:55:42.983Z,94824.69
2019-04-06T13:58:13.121Z,94822.73
2019-04-06T14:00:43.290Z,94819.25
2019-04-06T14:03:13.439Z,94816.84
2019-04-06T14:05:46.157Z,94811.18
2019-04-06T14:08:19.081Z,94807.69
2019-04-06T14:11:01.439Z,94807.95
2019-04-06T14:13:31.599Z,94788.79
2019-04-06T14:16:10.994Z,94783.09
2019-04-06T14:18:56.408Z,94781.50
2019-04-06T14:21:42.678Z,94774.98
2019-04-06T14:24:21.716Z,94777.08
2019-04-06T14:26:51.814Z,94768.67
2019-04-06T14:29:21.944Z,94762.81
2019-04-06T14:31:55.100Z,94772.50
2019-04-06T14:34:25.302Z,94769.64
2019-04-06T14:36:55.430Z,94764.58
2019-04-06T14:39:26.172Z,94755.81
2019-04-06T14:42:14.229Z,94747.77
2019-04-06T14:44:44.380Z,94748.00
2019-04-06T14:47:15.251Z,94740.52
2019-04-06T14:49:54.305Z,94739.38
2019-04-06T14:52:24.401Z,94739.39
2019-04-06T14:54:54.533Z,94741.30
2019-04-06T14:57:27.394Z,94743.95
2019-04-06T15:00:00.232Z,94744.56
2019-04-06T15:02:33.719Z,94739.15
2019-04-06T15:05:25.716Z,94746.97
2019-04-06T15:07:57.044Z,94758.88
2019-04-06T15:10:43.459Z,94759.48
2019-04-06T15:13:25.450Z,94752.16
2019-04-06T15:16:07.562Z,94758.41
2019-04-06T15:18:37.690Z,94757.63
2019-04-06T15:21:24.401Z,94756.27
2019-04-06T15:24:06.671Z,94750.42
2019-04-06T15:26:36.843Z,94744.18
2019-04-06T15:29:06.994Z,94744.16
2019-04-06T15:31:53.536Z,94733.91
2019-04-06T15:34:23.670Z,94729.67
2019-04-06T15:37:03.192Z,94737.95
2019-04-06T15:39:36.558Z,94736.92
2019-04-06T15:42:09.457Z,94726.98
2019-04-06T15:44:42.491Z,94719.73
2019-04-06T15:47:18.548Z,94713.39
2019-04-06T15:49:48.673Z,94716.83
2019-04-06T15:52:21.574Z,94709.34
2019-04-06T15:55:02.671Z,94713.05
2019-04-06T15:57:33.233Z,94709.04
2019-04-06T16:00:03.560Z,94700.88
2019-04-06T16:02:33.667Z,94699.55
2019-04-06T16:05:09.917Z,94697.85
2019-04-06T16:07:48.792Z,94690.53
2019-04-06T16:10:18.890Z,94693.04
2019-04-06T16:12:49.004Z,94699.69
2019-04-06T16:15:28.408Z,94701.44
2019-04-06T16:18:04.421Z,94707.12
2019-04-06T16:20:46.572Z,94718.69
2019-04-06T16:23:29.051Z,94713.81
2019-04-06T16:26:08.454Z,94716.23
2019-04-06T16:28:47.734Z,94704.65
2019-04-06T16:31:17.801Z,94714.62
2019-04-06T16:34:03.754Z,94721.08
2019-04-06T16:36:50.270Z,94728.25
2019-04-06T16:39:37.024Z,94734.55
2019-04-06T16:42:24.773Z,94741.05
2019-04-06T16:45:00.691Z,94734.03
2019-04-06T16:47:36.878Z,94750.20
2019-04-06T16:50:07.476Z,94750.43
2019-04-06T16:52:40.776Z,94742.06
2019-04-06T16:55:11.037Z,94768.44
2019-04-06T16:57:43.908Z,94754.78
2019-04-06T17:00:19.718Z,94767.34
2019-04-06T17:02:55.221Z,94765.21
2019-04-06T17:05:25.895Z,94764.56
2019-04-06T17:08:09.740Z,94761.06
2019-04-06T17:10:48.638Z,94765.15
2019-04-06T17:13:27.528Z,94761.88
2019-04-06T17:15:57.835Z,94766.54
2019-04-06T17:18:30.746Z,94764.81
2019-04-06T17:21:01.172Z,94766.13
2019-04-06T17:23:36.771Z,94766.13
2019-04-06T17:26:07.235Z,94765.81
2019-04-06T17:28:45.868Z,94769.08
2019-04-06T17:31:32.286Z,94772.31
2019-04-06T17:34:18.344Z,94768.84
2019-04-06T17:36:48.825Z,94779.63
2019-04-06T17:39:34.576Z,94778.22
2019-04-06T17:42:10.938Z,94797.24
2019-04-06T17:44:44.422Z,94783.47
2019-04-06T17:47:20.825Z,94776.16
2019-04-06T17:50:00.057Z,94789.17
2019-04-06T17:52:36.403Z,94782.67
2019-04-06T17:55:14.491Z,94783.88
2019-04-06T17:58:01.462Z,94787.73
2019-04-06T18:00:40.775Z,94789.08
2019-04-06T18:03:14.000Z,94796.61
2019-04-06T18:05:44.141Z,94799.03
2019-04-06T18:08:29.041Z,94802.08
2019-04-06T18:11:15.332Z,94804.47
2019-04-06T18:13:45.501Z,94790.05
2019-04-06T18:16:13.980Z,94801.67
2019-04-06T18:18:42.933Z,94804.35
2019-04-06T18:21:11.812Z,94800.33
2019-04-06T18:23:40.368Z,94804.66
2019-04-06T18:26:08.937Z,94802.72
2019-04-06T18:28:37.442Z,94806.87
2019-04-06T18:31:10.403Z,94804.91
2019-04-06T18:33:38.987Z,94811.04
2019-04-06T18:36:07.499Z,94811.88
2019-04-06T18:38:37.627Z,94821.13
2019-04-06T18:41:06.100Z,94812.75
2019-04-06T18:43:34.719Z,94817.91
2019-04-06T18:46:03.434Z,94817.59
2019-04-06T18:48:32.006Z,94808.70
2019-04-06T18:51:01.084Z,94814.91
2019-04-06T18:53:29.845Z,94829.76
2019-04-06T18:55:58.506Z,94820.59
2019-04-06T18:58:27.062Z,94812.72
2019-04-06T19:00:55.633Z,94819.70
2019-04-06T19:03:24.215Z,94835.11
2019-04-06T19:05:52.852Z,94828.97
2019-04-06T19:08:21.329Z,94831.13
2019-04-06T19:10:50.001Z,94825.73
2019-04-06T19:13:18.537Z,94837.88
2019-04-06T19:15:47.099Z,94822.47
2019-04-06T19:18:15.834Z,94822.43
2019-04-06T19:20:44.421Z,94838.16
2019-04-06T19:23:12.900Z,94843.87
2019-04-06T19:25:41.485Z,94845.50
2019-04-06T19:28:10.012Z,94837.93
2019-04-06T19:30:38.520Z,94846.81
2019-04-06T19:33:07.078Z,94846.55
2019-04-06T19:35:35.594Z,94844.95
2019-04-06T19:38:04.288Z,94852.25
2019-04-06T19:40:32.754Z,94847.11
2019-04-06T19:43:01.253Z,94845.75
2019-04-06T19:45:29.735Z,94845.73
2019-04-06T19:47:58.399Z,94851.67
2019-04-06T19:50:27.341Z,94858.67
2019-04-06T19:52:56.279Z,94852.72
2019-04-06T19:55:25.559Z,94859.53
2019-04-06T19:57:54.084Z,94857.36
2019-04-06T20:00:22.830Z,94849.79
2019-04-06T20:02:51.359Z,94859.53
2019-04-06T20:05:20.013Z,94849.25
2019-04-06T20:07:49.058Z,94848.14
2019-04-06T20:10:18.244Z,94842.71
2019-04-06T20:12:47.037Z,94849.77
2019-04-06T20:15:15.794Z,94845.72
2019-04-06T20:17:44.293Z,94850.23
2019-04-06T20:20:13.224Z,94848.27
2019-04-06T20:22:41.758Z,94851.52
2019-04-06T20:25:10.569Z,94856.89
2019-04-06T20:27:39.097Z,94859.64
2019-04-06T20:30:09.757Z,94856.16
2019-04-06T20:32:38.419Z,94848.00
2019-04-06T20:35:09.436Z,94868.23
2019-04-06T20:37:38.582Z,94862.16
2019-04-06T20:40:09.648Z,94848.98
2019-04-06T20:42:39.455Z,94853.53
2019-04-06T20:45:08.617Z,94865.14
2019-04-06T20:47:37.182Z,94857.84
2019-04-06T20:50:09.263Z,94860.05
2019-04-06T20:52:37.732Z,94861.42
2019-04-06T20:55:07.179Z,94858.43
2019-04-06T20:57:36.287Z,94863.34
2019-04-06T21:00:09.702Z,94864.68
2019-04-06T21:02:38.293Z,94858.72
2019-04-06T21:05:08.574Z,94853.58
2019-04-06T21:07:37.134Z,94853.02
2019-04-06T21:10:08.980Z,94846.53
2019-04-06T21:12:37.472Z,94837.06
2019-04-06T21:15:16.957Z,94850.58
2019-04-06T21:17:38.674Z,94853.84
2019-04-06T21:20:08.079Z,94852.51
2019-04-06T21:22:36.902Z,94846.03
2019-04-06T21:25:07.142Z,94846.04
2019-04-06T21:27:36.204Z,94840.09
2019-04-06T21:30:07.077Z,94845.77
2019-04-06T21:32:36.079Z,94830.63
2019-04-06T21:35:08.378Z,94843.05
2019-04-06T21:37:37.136Z,94841.98
2019-04-06T21:40:06.669Z,94848.48
2019-04-06T21:42:35.460Z,94848.73
2019-04-06T21:45:06.549Z,94850.91
2019-04-06T21:47:35.348Z,94845.77
2019-04-06T21:50:08.094Z,94839.28
2019-04-06T21:52:38.660Z,94844.69
2019-04-06T21:55:10.237Z,94844.41
2019-04-06T21:57:38.910Z,94849.54
2019-04-06T22:00:12.203Z,94841.98
2019-04-06T22:02:41.038Z,94836.58
2019-04-06T22:05:10.314Z,94839.82
2019-04-06T22:07:48.143Z,94832.52
2019-04-06T22:10:09.488Z,94831.99
2019-04-06T22:12:37.976Z,94839.82
2019-04-06T22:15:07.801Z,94843.06
2019-04-06T22:17:36.333Z,94839.80
2019-04-06T22:20:05.906Z,94844.11
2019-04-06T22:22:35.382Z,94842.47
2019-04-06T22:25:05.935Z,94849.25
2019-04-06T22:27:34.602Z,94839.80
2019-04-06T22:30:06.807Z,94843.86
2019-04-06T22:32:35.702Z,94857.67
2019-04-06T22:35:07.401Z,94852.52
2019-04-06T22:37:37.081Z,94856.05
2019-04-06T22:40:08.818Z,94855.47
2019-04-06T22:42:37.324Z,94854.66
2019-04-06T22:45:08.631Z,94849.25
2019-04-06T22:47:38.149Z,94860.05
2019-04-06T22:50:07.874Z,94850.06
2019-04-06T22:52:36.753Z,94860.90
2019-04-06T22:55:09.487Z,94856.84
2019-04-06T22:57:38.700Z,94851.45
2019-04-06T23:00:13.644Z,94855.48
2019-04-06T23:02:47.597Z,94851.99
2019-04-06T23:05:17.820Z,94855.77
2019-04-06T23:07:46.320Z,94853.06
2019-04-06T23:10:14.993Z,94851.69
2019-04-06T23:12:43.907Z,94840.89
2019-04-06T23:15:12.986Z,94853.06
2019-04-06T23:17:42.057Z,94858.47
2019-04-06T23:20:10.878Z,94858.46
2019-04-06T23:22:39.445Z,94855.75
2019-04-06T23:25:08.401Z,94851.19
2019-04-06T23:27:37.703Z,94857.38
2019-04-06T23:30:07.878Z,94858.20
2019-04-06T23:32:36.402Z,94862.77
2019-04-06T23:35:05.951Z,94863.27
2019-04-06T23:37:34.448Z,94876.00
2019-04-06T23:40:03.056Z,94880.52
2019-04-06T23:42:31.901Z,94880.09
2019-04-06T23:45:00.806Z,94878.94
2019-04-06T23:47:29.721Z,94883.59
2019-04-06T23:49:58.417Z,94879.72
2019-04-06T23:52:27.452Z,94888.31
2019-04-06T23:54:57.168Z,94883.53
2019-04-06T23:57:26.569Z,94895.59
2019-04-06T23:59:55.502Z,94888.56
